Time;durP1;ratioP1;P1;durP2;ratioP2;P2;SDS_P1;SDS_P2;PMS_P1;PMS_P2;Temp;Humidity;BMP_temperature;BMP_pressure;BME280_temperature;BME280_humidity;BME280_pressure;Samples;Min_cycle;Max_cycle;Signal;HPM_P1;HPM_P2
2023/06/20 00:00:50;;;;;;;3.70;3.37;;;;;;;22.32;59.79;97122.13;5071409;28;20220;-26
2023/06/20 00:03:17;;;;;;;3.57;3.27;;;;;;;22.34;59.77;97117.03;5061792;28;20219;-26
2023/06/20 00:05:44;;;;;;;3.63;3.33;;;;;;;22.33;59.67;97115.34;5071458;28;20286;-26
2023/06/20 00:08:10;;;;;;;3.47;3.17;;;;;;;22.33;59.86;97126.44;5068968;28;20246;-26
2023/06/20 00:10:37;;;;;;;3.40;3.10;;;;;;;22.32;59.89;97123.84;5070959;28;20223;-26
2023/06/20 00:13:03;;;;;;;3.43;3.13;;;;;;;22.32;59.84;97127.25;5070183;28;20742;-26
2023/06/20 00:15:30;;;;;;;3.43;3.13;;;;;;;22.33;59.80;97125.56;5071003;28;20204;-26
2023/06/20 00:18:00;;;;;;;3.80;3.43;;;;;;;22.34;59.80;97127.28;5071113;28;20200;-26
2023/06/20 00:20:27;;;;;;;3.70;3.40;;;;;;;22.34;59.71;97130.72;5066784;28;20254;-26
2023/06/20 00:22:54;;;;;;;3.27;2.97;;;;;;;22.34;59.77;97133.28;5071174;28;20291;-26
2023/06/20 00:25:20;;;;;;;5.63;3.40;;;;;;;22.33;59.72;97135.81;5066935;28;20248;-26
2023/06/20 00:27:47;;;;;;;4.43;3.70;;;;;;;22.33;59.97;97139.25;5071349;28;20235;-26
2023/06/20 00:30:14;;;;;;;4.03;3.07;;;;;;;22.33;59.75;97141.81;5070700;28;20291;-26
2023/06/20 00:32:41;;;;;;;3.57;3.27;;;;;;;22.34;59.65;97148.66;5070981;28;20463;-26
2023/06/20 00:35:07;;;;;;;3.50;3.20;;;;;;;22.34;59.78;97155.44;5068680;28;20714;-26
2023/06/20 00:37:36;;;;;;;3.73;3.43;;;;;;;22.34;59.66;97148.66;5070862;28;20291;-26
2023/06/20 00:40:09;;;;;;;3.77;3.47;;;;;;;22.33;59.72;97143.50;5067526;28;20291;-26
2023/06/20 00:42:36;;;;;;;3.80;3.50;;;;;;;22.33;59.83;97149.50;5070769;28;20204;-26
2023/06/20 00:45:03;;;;;;;3.50;3.30;;;;;;;22.33;59.90;97149.50;5069544;28;20220;-26
2023/06/20 00:47:30;;;;;;;3.93;3.53;;;;;;;22.33;59.87;97151.19;5067413;28;20263;-26
2023/06/20 00:49:56;;;;;;;3.13;2.90;;;;;;;22.33;59.87;97152.06;5053238;28;20201;-26
2023/06/20 00:52:23;;;;;;;3.70;3.40;;;;;;;22.32;59.85;97152.84;5051564;28;20303;-26
2023/06/20 00:54:50;;;;;;;3.77;3.47;;;;;;;22.33;59.88;97153.72;5070929;28;20637;-26
2023/06/20 00:57:17;;;;;;;3.63;3.33;;;;;;;22.32;59.95;97145.19;5071096;28;20291;-26
2023/06/20 00:59:44;;;;;;;3.60;3.30;;;;;;;22.33;59.85;97157.16;5069035;28;20212;-26
2023/06/20 01:02:13;;;;;;;3.40;3.10;;;;;;;22.33;60.02;97151.19;5067554;28;20262;-26
2023/06/20 01:04:41;;;;;;;4.17;3.20;;;;;;;22.33;59.99;97156.28;5070142;28;20224;-26
2023/06/20 01:07:17;;;;;;;3.47;3.20;;;;;;;22.33;59.82;97156.28;5060402;28;20213;-26
2023/06/20 01:10:11;;;;;;;3.80;3.40;;;;;;;22.33;60.02;97162.28;5070742;28;20200;-26
2023/06/20 01:12:50;;;;;;;3.47;3.17;;;;;;;22.32;60.03;97165.66;5063198;28;20648;-26
2023/06/20 01:15:19;;;;;;;3.53;3.17;;;;;;;22.32;60.14;97167.38;5068556;28;20712;-26
2023/06/20 01:17:51;;;;;;;3.40;3.10;;;;;;;22.33;59.97;97175.09;5071131;28;20212;-26
2023/06/20 01:20:26;;;;;;;3.27;2.97;;;;;;;22.32;59.94;97177.63;5052705;28;20200;-26
2023/06/20 01:23:07;;;;;;;3.60;3.30;;;;;;;22.11;60.10;97147.28;5063945;28;20572;-26
2023/06/20 01:25:59;;;;;;;3.83;3.37;;;;;;;22.34;60.05;97188.72;5041785;28;20244;-26
2023/06/20 01:28:39;;;;;;;3.50;3.20;;;;;;;22.27;59.76;97179.22;5080655;28;20254;-26
2023/06/20 01:31:09;;;;;;;3.90;3.50;;;;;;;22.32;59.76;97186.13;5069985;28;20220;-26
2023/06/20 01:33:42;;;;;;;3.30;3.00;;;;;;;22.34;59.86;97175.94;5064719;28;20278;-26
2023/06/20 01:36:09;;;;;;;3.40;3.10;;;;;;;22.32;59.79;97172.50;5047224;28;20201;-26
2023/06/20 01:38:36;;;;;;;3.83;3.53;;;;;;;22.32;59.86;97181.03;5065755;28;20208;-26
2023/06/20 01:41:02;;;;;;;4.00;3.40;;;;;;;22.32;60.00;97180.19;5069152;28;20224;-26
2023/06/20 01:43:29;;;;;;;4.77;3.50;;;;;;;22.31;59.91;97186.97;5049148;28;20210;-26
2023/06/20 01:45:56;;;;;;;3.50;3.23;;;;;;;22.34;59.90;97188.72;5049315;28;20591;-26
2023/06/20 01:48:22;;;;;;;3.70;3.40;;;;;;;22.33;60.07;97187.00;5046730;28;20262;-26
2023/06/20 01:50:49;;;;;;;3.73;3.43;;;;;;;22.28;59.92;97176.69;5030342;28;20263;-26
2023/06/20 01:53:15;;;;;;;3.43;3.13;;;;;;;22.33;60.05;97184.47;5040776;28;20658;-26
2023/06/20 01:55:42;;;;;;;3.67;3.37;;;;;;;22.33;60.02;97187.00;5037208;28;20229;-26
2023/06/20 01:58:09;;;;;;;3.80;3.50;;;;;;;22.33;60.08;97187.88;5031577;28;20788;-26
2023/06/20 02:00:36;;;;;;;4.10;3.70;;;;;;;22.32;60.02;97188.69;5040650;28;20307;-26
2023/06/20 02:03:02;;;;;;;3.53;3.23;;;;;;;22.31;60.03;97189.53;5051751;28;20254;-26
2023/06/20 02:05:30;;;;;;;3.63;3.33;;;;;;;22.34;59.95;97188.72;5019181;28;20581;-26
2023/06/20 02:07:57;;;;;;;3.50;3.20;;;;;;;22.30;59.98;97184.38;5051724;28;20201;-26
2023/06/20 02:10:24;;;;;;;3.50;3.20;;;;;;;22.32;60.17;97188.69;5046620;28;20201;-26
2023/06/20 02:12:51;;;;;;;3.90;3.50;;;;;;;22.31;60.28;97189.53;5032458;28;20254;-26
2023/06/20 02:15:18;;;;;;;3.80;3.50;;;;;;;22.31;60.20;97189.53;5033461;28;20252;-26
2023/06/20 02:17:45;;;;;;;3.80;3.50;;;;;;;22.33;60.11;97202.38;5019502;28;20255;-26
2023/06/20 02:20:12;;;;;;;3.40;3.10;;;;;;;22.35;59.97;97208.41;5049783;28;20266;-26
2023/06/20 02:22:39;;;;;;;3.47;3.17;;;;;;;22.35;60.00;97222.06;5052010;28;20250;-26
2023/06/20 02:25:06;;;;;;;3.60;3.30;;;;;;;22.35;59.86;97222.06;5051454;28;20244;-26
2023/06/20 02:27:33;;;;;;;3.70;3.40;;;;;;;22.38;59.95;97229.78;5031384;28;20240;-26
2023/06/20 02:30:00;;;;;;;3.40;3.10;;;;;;;22.38;59.67;97242.59;5026556;28;20716;-26
2023/06/20 02:32:26;;;;;;;3.80;3.50;;;;;;;22.39;59.86;97239.22;5017878;28;20279;-26
2023/06/20 02:34:53;;;;;;;3.63;3.33;;;;;;;22.40;59.70;97237.50;5024115;28;20583;-26
2023/06/20 02:37:19;;;;;;;3.50;3.20;;;;;;;22.41;59.81;97246.94;5022432;28;20636;-26
2023/06/20 02:39:47;;;;;;;3.50;3.20;;;;;;;22.41;59.86;97249.50;5042753;28;20263;-26
2023/06/20 02:42:13;;;;;;;3.70;3.40;;;;;;;22.42;59.85;97258.91;5041293;28;20640;-26
2023/06/20 02:44:40;;;;;;;3.83;3.43;;;;;;;22.42;59.87;97272.59;5066683;28;20237;-26
2023/06/20 02:47:23;;;;;;;3.90;3.43;;;;;;;22.42;59.87;97289.63;5072381;28;20200;-26
2023/06/20 02:49:59;;;;;;;3.60;3.30;;;;;;;22.41;59.86;97293.88;5072439;28;20207;-26
2023/06/20 02:53:07;;;;;;;3.70;3.40;;;;;;;22.43;59.60;97292.22;5066056;28;20230;-26
2023/06/20 02:55:45;;;;;;;3.73;3.43;;;;;;;22.42;59.76;97287.94;5062207;28;20196;-26
2023/06/20 02:58:13;;;;;;;3.50;3.20;;;;;;;22.42;59.75;97299.88;5072657;28;20583;-26
2023/06/20 07:02:14;;;;;;;2.20;2.00;;;;;;;23.85;38.97;97396.03;5049480;28;20227;-26
2023/06/20 07:04:41;;;;;;;2.70;2.17;;;;;;;23.86;39.03;97392.63;5040987;28;20205;-26
2023/06/20 07:07:07;;;;;;;2.20;2.00;;;;;;;23.86;38.84;97387.47;5480237;22;20251;-28
2023/06/20 07:09:34;;;;;;;1.93;1.63;;;;;;;23.86;39.20;97382.34;5078684;28;20638;-28
2023/06/20 07:12:00;;;;;;;2.00;1.90;;;;;;;23.88;38.83;97375.56;5080630;28;20224;-28
2023/06/20 07:14:27;;;;;;;2.10;2.00;;;;;;;23.88;38.64;97361.84;5082019;28;20291;-32
2023/06/20 07:16:54;;;;;;;2.20;1.97;;;;;;;23.89;38.68;97349.03;5079564;28;20219;-29
2023/06/20 07:19:31;;;;;;;1.90;1.80;;;;;;;23.91;38.56;97342.22;5080947;22;20597;-24
2023/06/20 07:21:58;;;;;;;2.20;2.00;;;;;;;23.92;38.90;97349.09;5091998;28;20716;-23
2023/06/20 07:24:24;;;;;;;2.10;1.90;;;;;;;23.93;38.85;97367.94;5091886;28;20209;-22
2023/06/20 07:26:51;;;;;;;1.97;1.80;;;;;;;23.93;38.58;97388.47;5092614;28;20326;-23
2023/06/20 07:29:18;;;;;;;1.70;1.60;;;;;;;23.94;38.40;97387.63;5091744;28;20212;-25
2023/06/20 07:31:44;;;;;;;1.77;1.67;;;;;;;23.95;38.39;97379.09;5083854;28;20230;-23
2023/06/20 07:34:11;;;;;;;1.73;1.63;;;;;;;23.97;38.62;97377.44;5092385;28;20237;-22
2023/06/20 07:36:38;;;;;;;2.00;1.90;;;;;;;23.97;38.20;97378.31;5091019;28;20265;-23
2023/06/20 07:39:06;;;;;;;1.80;1.70;;;;;;;23.97;38.24;97386.00;5084405;28;20222;-23
2023/06/20 07:41:32;;;;;;;2.60;1.80;;;;;;;23.99;38.04;97386.03;5077420;28;20258;-34
2023/06/20 07:43:59;;;;;;;1.80;1.70;;;;;;;23.99;37.97;97376.66;5082746;28;20207;-23
2023/06/20 07:46:26;;;;;;;2.10;2.00;;;;;;;23.99;37.77;97374.06;5082767;28;20224;-23
2023/06/20 07:48:52;;;;;;;2.00;1.90;;;;;;;23.94;37.90;97361.94;5071828;28;20612;-22
2023/06/20 07:51:20;;;;;;;1.90;1.80;;;;;;;24.00;38.02;97387.75;5079895;28;20684;-23
2023/06/20 07:53:47;;;;;;;1.70;1.60;;;;;;;24.01;37.81;97390.34;5079549;28;20593;-22
2023/06/20 07:56:14;;;;;;;1.80;1.70;;;;;;;24.01;37.93;97397.22;5071567;28;20232;-23
2023/06/20 07:58:41;;;;;;;1.90;1.80;;;;;;;24.01;37.95;97392.91;5053840;28;20254;-23
2023/06/20 08:01:08;;;;;;;1.80;1.70;;;;;;;24.01;37.95;97392.06;5071443;28;20225;-23
2023/06/20 08:03:34;;;;;;;1.70;1.60;;;;;;;24.01;37.95;97387.78;5071483;28;20244;-23
2023/06/20 08:06:03;;;;;;;1.90;1.80;;;;;;;24.02;37.76;97386.97;5071466;28;20721;-34
2023/06/20 08:08:29;;;;;;;1.80;1.70;;;;;;;24.02;37.36;97386.09;5037578;28;20260;-36
2023/06/20 08:10:56;;;;;;;1.70;1.60;;;;;;;24.02;37.39;97374.13;5086597;28;20298;-22
2023/06/20 08:13:25;;;;;;;1.87;1.70;;;;;;;24.04;37.64;97371.59;5079782;28;20211;-23
2023/06/20 08:15:53;;;;;;;1.50;1.40;;;;;;;24.04;37.26;97369.88;5071537;28;20207;-23
2023/06/20 08:18:19;;;;;;;2.17;1.97;;;;;;;24.05;37.52;97391.28;5074656;28;20202;-31
2023/06/20 08:20:47;;;;;;;1.87;1.77;;;;;;;24.05;37.58;97360.47;5071070;28;20307;-27
2023/06/20 08:23:14;;;;;;;1.90;1.80;;;;;;;24.05;37.50;97355.34;5071634;28;20204;-23
2023/06/20 08:25:41;;;;;;;1.70;1.60;;;;;;;24.05;37.71;97358.78;5071173;28;20756;-22
2023/06/20 08:28:08;;;;;;;1.70;1.60;;;;;;;24.06;37.11;97352.78;5071815;28;20243;-23
2023/06/20 08:30:41;;;;;;;2.43;2.00;;;;;;;24.07;37.36;97357.06;5070998;28;20224;-23
2023/06/20 08:33:07;;;;;;;1.60;1.50;;;;;;;24.07;37.49;97349.38;5071341;28;20246;-32
2023/06/20 08:35:34;;;;;;;1.60;1.50;;;;;;;24.08;37.37;97355.38;5075802;28;20692;-23
2023/06/20 08:38:00;;;;;;;1.60;1.50;;;;;;;23.54;37.09;97257.78;5081578;28;20204;-23
2023/06/20 08:40:28;;;;;;;1.87;1.77;;;;;;;24.09;37.09;97349.41;5075185;28;20278;-26
2023/06/20 08:42:55;;;;;;;1.63;1.53;;;;;;;24.04;37.36;97349.31;5075241;28;20287;-29
2023/06/20 08:45:22;;;;;;;1.73;1.60;;;;;;;24.11;37.47;97355.44;5057387;28;20250;-22
2023/06/20 08:47:49;;;;;;;1.77;1.67;;;;;;;24.10;37.38;97357.13;5075129;28;20640;-24
2023/06/20 08:50:15;;;;;;;1.70;1.60;;;;;;;24.12;37.25;97352.03;5082672;28;20662;-21
2023/06/20 08:52:47;;;;;;;1.80;1.70;;;;;;;24.12;37.09;97342.63;5075306;28;20204;-24
2023/06/20 08:55:14;;;;;;;1.87;1.70;;;;;;;24.13;37.07;97346.06;5075158;28;20200;-23
2023/06/20 08:57:41;;;;;;;1.80;1.70;;;;;;;24.13;36.79;97341.78;5074871;28;20616;-22
2023/06/20 09:00:11;;;;;;;1.53;1.43;;;;;;;24.14;37.10;97347.78;5074895;28;20227;-29
2023/06/20 09:02:38;;;;;;;1.80;1.70;;;;;;;24.15;36.35;97347.81;5082899;28;20204;-38
2023/06/20 09:05:05;;;;;;;2.00;1.80;;;;;;;24.15;36.71;97346.94;5075006;28;20274;-23
2023/06/20 09:07:36;;;;;;;1.77;1.67;;;;;;;24.15;36.93;97336.66;5074746;28;20460;-23
2023/06/20 09:10:06;;;;;;;1.43;1.33;;;;;;;24.16;36.90;97338.41;5088819;28;20222;-25
2023/06/20 09:12:49;;;;;;;1.60;1.50;;;;;;;24.16;36.90;97339.25;5076038;28;20665;-30
2023/06/20 09:15:17;;;;;;;1.60;1.50;;;;;;;24.17;36.87;97337.56;5074854;28;20208;-24
2023/06/20 09:17:44;;;;;;;2.43;1.60;;;;;;;24.17;36.97;97335.88;5074728;28;20249;-23
2023/06/20 09:20:11;;;;;;;1.60;1.50;;;;;;;24.18;36.62;97337.59;5074206;28;20231;-31
2023/06/20 09:22:39;;;;;;;1.83;1.73;;;;;;;24.19;36.57;97325.63;5074362;28;20261;-23
2023/06/20 09:25:07;;;;;;;1.77;1.67;;;;;;;24.19;36.50;97334.16;5074223;28;20628;-23
2023/06/20 09:27:35;;;;;;;1.70;1.60;;;;;;;24.20;36.77;97330.78;5074041;28;20273;-23
2023/06/20 09:30:04;;;;;;;1.60;1.50;;;;;;;24.20;36.93;97330.78;5074329;28;20318;-23
2023/06/20 09:32:35;;;;;;;1.83;1.73;;;;;;;24.22;36.66;97325.66;5082524;28;20674;-23
2023/06/20 09:35:05;;;;;;;1.50;1.40;;;;;;;24.21;36.73;97314.53;5082685;28;20208;-27
2023/06/20 09:37:53;;;;;;;1.60;1.50;;;;;;;24.23;36.69;97311.97;5074119;28;20621;-31
2023/06/20 09:40:20;;;;;;;1.60;1.50;;;;;;;24.22;36.64;97312.81;5074213;28;20701;-29
2023/06/20 09:42:47;;;;;;;1.70;1.60;;;;;;;24.23;36.43;97315.41;5077916;28;20231;-23
2023/06/20 09:45:15;;;;;;;1.50;1.40;;;;;;;24.23;36.36;97306.84;5078425;28;20235;-23
2023/06/20 09:47:43;;;;;;;1.70;1.60;;;;;;;24.23;36.21;97315.41;5077112;28;20211;-23
2023/06/20 09:50:16;;;;;;;1.80;1.70;;;;;;;24.24;36.38;97304.28;5087336;28;20224;-23
2023/06/20 09:52:46;;;;;;;1.53;1.43;;;;;;;24.25;36.34;97305.16;5056590;28;20208;-29
2023/06/20 09:55:14;;;;;;;1.57;1.47;;;;;;;24.24;36.45;97301.72;5056867;28;20242;-24
2023/06/20 09:57:49;;;;;;;1.70;1.60;;;;;;;24.20;36.38;97289.69;5073654;28;20241;-25
2023/06/20 10:00:16;;;;;;;1.50;1.40;;;;;;;24.25;36.40;97292.34;5056401;28;20223;-23
2023/06/20 10:02:46;;;;;;;1.90;1.80;;;;;;;24.23;36.33;97281.16;5073487;28;20196;-23
2023/06/20 10:05:17;;;;;;;1.70;1.60;;;;;;;24.27;36.41;97283.78;5073724;28;20287;-22
2023/06/20 10:07:46;;;;;;;1.60;1.50;;;;;;;24.26;36.32;97284.66;5073841;28;20251;-25
2023/06/20 10:10:13;;;;;;;1.60;1.50;;;;;;;24.28;36.06;97276.97;5088661;28;20247;-23
2023/06/20 10:12:40;;;;;;;1.60;1.50;;;;;;;24.28;36.08;97274.41;5074516;28;22694;-23
2023/06/20 10:15:08;;;;;;;1.70;1.60;;;;;;;24.28;36.10;97282.94;5055935;28;20629;-23
2023/06/20 10:17:39;;;;;;;1.43;1.33;;;;;;;24.18;36.24;97255.41;5055593;28;20735;-23
2023/06/20 10:20:09;;;;;;;1.53;1.43;;;;;;;24.29;35.93;97276.13;5073154;28;20262;-23
2023/06/20 10:22:36;;;;;;;1.40;1.30;;;;;;;24.30;36.06;97277.84;5073239;28;20240;-27
2023/06/20 10:25:13;;;;;;;1.70;1.60;;;;;;;24.29;36.22;97277.00;5073434;28;20616;-23
2023/06/20 10:27:43;;;;;;;1.60;1.50;;;;;;;24.21;35.84;97254.59;5075930;28;20220;-22
2023/06/20 10:30:13;;;;;;;1.60;1.50;;;;;;;24.31;36.05;97272.72;5085562;28;20665;-29
2023/06/20 10:33:05;;;;;;;1.50;1.40;;;;;;;24.30;35.70;97265.88;5070979;28;20204;-23
2023/06/20 10:35:31;;;;;;;1.67;1.57;;;;;;;24.31;35.91;97269.31;5089141;28;20207;-23
2023/06/20 10:38:08;;;;;;;1.60;1.50;;;;;;;24.31;36.07;97270.16;5101797;28;20286;-23
2023/06/20 10:40:36;;;;;;;2.30;1.50;;;;;;;24.32;36.12;97271.03;5102665;28;20727;-27
2023/06/20 10:43:09;;;;;;;1.50;1.40;;;;;;;24.31;35.73;97265.00;5106640;28;20253;-22
2023/06/20 10:45:36;;;;;;;1.60;1.50;;;;;;;24.32;35.71;97264.19;5092620;28;20200;-23
2023/06/20 10:48:03;;;;;;;1.67;1.57;;;;;;;24.33;35.97;97257.31;5075661;28;20268;-29
2023/06/20 10:50:30;;;;;;;1.60;1.50;;;;;;;24.33;36.03;97265.03;5101056;28;20215;-23
2023/06/20 10:52:58;;;;;;;1.50;1.40;;;;;;;24.33;35.68;97260.78;5088375;28;20292;-23
2023/06/20 10:55:29;;;;;;;1.40;1.30;;;;;;;24.34;35.68;97257.34;5093465;28;20287;-23
2023/06/20 10:57:55;;;;;;;1.57;1.47;;;;;;;24.34;35.80;97256.50;5099864;28;20203;-23
2023/06/20 11:00:22;;;;;;;1.80;1.70;;;;;;;24.35;36.47;97245.38;5084529;28;20276;-23
2023/06/20 11:02:51;;;;;;;2.90;2.70;;;;;;;24.35;41.92;97253.09;5089713;28;20227;-23
2023/06/20 11:05:17;;;;;;;2.70;2.47;;;;;;;24.33;41.09;97249.63;5092724;28;20192;-27
2023/06/20 11:07:53;;;;;;;2.57;2.33;;;;;;;24.30;40.61;97247.88;5091750;28;20306;-22
2023/06/20 11:10:33;;;;;;;3.07;2.53;;;;;;;24.26;40.46;97235.84;5081859;28;20223;-22
2023/06/20 11:13:02;;;;;;;4.10;2.50;;;;;;;24.21;40.38;97231.47;5073006;28;20196;-34
2023/06/20 11:15:35;;;;;;;2.40;2.20;;;;;;;24.18;40.32;97234.88;5072458;28;20204;-22
2023/06/20 11:18:03;;;;;;;2.83;2.50;;;;;;;24.15;40.65;97236.53;5078052;28;20230;-21
2023/06/20 11:20:37;;;;;;;2.70;2.50;;;;;;;24.10;40.81;97231.31;5092167;28;20228;-22
2023/06/20 11:23:08;;;;;;;2.50;2.30;;;;;;;24.07;40.91;97227.88;5092789;28;20219;-22
2023/06/20 11:25:35;;;;;;;3.70;2.40;;;;;;;24.03;40.92;97226.06;5092429;28;20200;-29
2023/06/20 11:28:12;;;;;;;2.73;2.53;;;;;;;23.94;41.01;97215.63;5092544;28;20222;-23
2023/06/20 11:30:40;;;;;;;2.40;2.20;;;;;;;23.95;41.01;97220.81;5075034;28;20250;-23
2023/06/20 11:33:10;;;;;;;2.50;2.30;;;;;;;23.93;40.86;97227.63;5092855;28;20195;-22
2023/06/20 11:35:53;;;;;;;2.40;2.20;;;;;;;23.89;41.18;97223.25;5092423;28;20207;-21
2023/06/20 11:38:24;;;;;;;2.53;2.33;;;;;;;23.88;41.21;97220.69;5092312;28;20187;-22
2023/06/20 11:41:04;;;;;;;2.70;2.40;;;;;;;23.84;41.62;97217.22;5086130;28;20299;-22
2023/06/20 11:43:34;;;;;;;2.73;2.53;;;;;;;23.82;41.76;97212.88;5090991;28;20222;-23
2023/06/20 11:46:01;;;;;;;2.60;2.40;;;;;;;23.81;41.83;97216.31;5075599;28;20196;-23
2023/06/20 11:48:28;;;;;;;2.33;2.20;;;;;;;23.78;42.01;97214.56;5089879;28;20220;-22
2023/06/20 11:51:05;;;;;;;2.53;2.33;;;;;;;23.76;42.03;97213.66;5073680;28;20595;-22
2023/06/20 11:53:34;;;;;;;2.57;2.37;;;;;;;23.75;41.81;97208.50;5081790;28;20617;-22
2023/06/20 11:56:07;;;;;;;2.23;2.03;;;;;;;23.73;42.14;97205.91;5082793;28;20395;-22
2023/06/20 11:58:49;;;;;;;2.70;2.50;;;;;;;23.59;42.23;97184.31;5089826;28;20565;-21
2023/06/20 12:01:17;;;;;;;2.53;2.33;;;;;;;23.69;42.11;97201.59;5083488;28;20200;-22
2023/06/20 12:03:44;;;;;;;2.50;2.30;;;;;;;23.60;42.46;97191.19;5090621;28;20570;-23
2023/06/20 12:06:36;;;;;;;2.23;2.13;;;;;;;23.67;42.35;97197.25;5084637;28;20222;-23
2023/06/20 12:09:02;;;;;;;3.57;2.30;;;;;;;23.66;42.76;97195.53;5076878;28;20598;-22
2023/06/20 12:11:29;;;;;;;2.20;2.10;;;;;;;23.64;42.75;97195.50;5082581;28;20199;-26
2023/06/20 12:13:56;;;;;;;2.33;2.23;;;;;;;23.64;42.55;97192.06;5079990;28;20196;-22
2023/06/20 12:16:23;;;;;;;2.10;2.00;;;;;;;23.62;42.62;97184.34;5080015;28;20203;-21
2023/06/20 12:18:52;;;;;;;2.13;2.03;;;;;;;23.56;42.81;97173.16;5080153;28;20636;-23
2023/06/20 12:21:19;;;;;;;2.57;2.30;;;;;;;23.61;42.81;97179.19;5079647;28;20573;-22
2023/06/20 12:23:46;;;;;;;3.33;2.10;;;;;;;23.59;42.78;97179.19;5088196;28;20204;-23
2023/06/20 12:26:14;;;;;;;2.87;2.00;;;;;;;23.58;43.08;97182.59;5078754;28;20294;-22
2023/06/20 12:28:41;;;;;;;2.10;2.00;;;;;;;23.59;42.90;97186.03;5071881;28;20598;-22
2023/06/20 12:31:08;;;;;;;2.50;2.30;;;;;;;23.58;43.07;97176.59;5086056;28;20641;-29
2023/06/20 12:33:35;;;;;;;2.60;2.40;;;;;;;23.57;43.13;97178.31;5080587;28;20200;-22
2023/06/20 12:36:02;;;;;;;2.10;2.00;;;;;;;23.57;42.92;97173.19;5080680;28;20203;-21
2023/06/20 12:38:30;;;;;;;2.53;2.33;;;;;;;23.56;43.26;97176.56;5072202;28;20206;-22
2023/06/20 12:40:58;;;;;;;1.93;1.83;;;;;;;23.56;43.32;97168.88;5075352;28;20566;-23
2023/06/20 12:43:24;;;;;;;2.23;2.13;;;;;;;23.57;43.15;97169.75;5073938;28;20229;-31
2023/06/20 12:45:52;;;;;;;2.40;2.20;;;;;;;23.56;43.48;97171.44;5083903;28;20204;-24
2023/06/20 12:48:19;;;;;;;2.17;2.03;;;;;;;23.56;43.59;97170.59;5074863;28;20255;-22
2023/06/20 12:50:50;;;;;;;2.00;1.90;;;;;;;23.55;43.63;97168.84;5081874;28;20231;-24
2023/06/20 12:53:17;;;;;;;1.97;1.87;;;;;;;23.55;43.75;97161.16;5083545;28;20199;-28
2023/06/20 12:55:44;;;;;;;2.30;2.10;;;;;;;23.53;43.46;97158.56;5075161;28;20197;-29
2023/06/20 12:58:13;;;;;;;2.23;2.07;;;;;;;23.53;43.78;97162.84;5075423;28;20242;-22
2023/06/20 13:00:41;;;;;;;2.07;1.97;;;;;;;23.51;43.63;97155.13;5079929;28;20573;-23
2023/06/20 13:03:08;;;;;;;2.10;2.00;;;;;;;23.51;43.87;97161.94;5078135;28;20203;-26
2023/06/20 13:05:35;;;;;;;2.23;2.03;;;;;;;23.51;44.07;97156.81;5079195;28;20694;-24
2023/06/20 13:08:05;;;;;;;2.40;2.20;;;;;;;23.51;43.85;97149.13;5078566;28;20251;-25
2023/06/20 13:10:32;;;;;;;3.17;1.97;;;;;;;23.51;43.96;97146.56;5088189;28;20227;-27
2023/06/20 13:12:58;;;;;;;2.17;2.00;;;;;;;23.50;44.02;97148.25;5077070;28;20200;-23
2023/06/20 13:15:29;;;;;;;2.37;2.17;;;;;;;23.49;43.96;97140.53;5059334;28;20283;-23
2023/06/20 13:17:55;;;;;;;2.03;1.93;;;;;;;23.48;44.36;97143.94;5079354;28;20232;-23
2023/06/20 13:20:23;;;;;;;1.87;1.77;;;;;;;23.48;44.27;97149.06;5072957;28;20226;-29
2023/06/20 13:22:51;;;;;;;2.20;2.10;;;;;;;23.48;44.29;97151.63;5090142;28;20197;-22
2023/06/20 13:25:18;;;;;;;2.07;1.87;;;;;;;23.48;44.21;97149.94;5074736;28;20201;-23
2023/06/20 13:27:48;;;;;;;2.00;1.90;;;;;;;23.47;44.38;97148.19;5093763;28;20219;-28
2023/06/20 13:30:15;;;;;;;2.10;2.00;;;;;;;23.46;44.48;97150.75;5094661;28;20770;-27
2023/06/20 13:32:42;;;;;;;2.07;1.97;;;;;;;23.47;44.27;97152.50;5081411;28;20652;-22
2023/06/20 13:35:09;;;;;;;3.23;2.13;;;;;;;23.47;44.54;97153.34;5085168;28;20227;-22
2023/06/20 13:37:39;;;;;;;5.03;2.50;;;;;;;23.46;44.49;97145.59;5079939;28;20208;-23
2023/06/20 13:40:08;;;;;;;2.50;2.20;;;;;;;23.47;44.94;97135.38;5091740;28;20219;-23
2023/06/20 13:42:41;;;;;;;2.23;2.07;;;;;;;23.47;44.94;97134.53;5085147;28;20207;-22
2023/06/20 13:45:12;;;;;;;2.40;2.20;;;;;;;23.45;44.78;97137.06;5089507;28;20214;-23
2023/06/20 13:47:40;;;;;;;1.93;1.83;;;;;;;23.44;44.89;97132.75;5090129;28;20770;-23
2023/06/20 13:50:08;;;;;;;2.20;2.10;;;;;;;23.46;44.81;97125.09;5089817;28;20307;-23
2023/06/20 13:52:36;;;;;;;2.10;2.00;;;;;;;23.44;44.86;97119.94;5085438;28;20262;-23
2023/06/20 13:55:04;;;;;;;2.10;1.97;;;;;;;23.44;44.98;97125.06;5089926;28;20242;-22
2023/06/20 13:57:31;;;;;;;1.93;1.83;;;;;;;23.45;45.10;97120.81;5081985;28;20200;-23
2023/06/20 13:59:59;;;;;;;2.10;2.00;;;;;;;23.44;44.56;97122.50;5080244;28;20231;-23
2023/06/20 14:02:27;;;;;;;3.27;1.90;;;;;;;23.44;44.98;97112.25;5078270;28;20204;-22
2023/06/20 14:04:53;;;;;;;2.50;2.07;;;;;;;23.44;44.90;97116.53;5081182;28;20254;-23
2023/06/20 14:07:21;;;;;;;1.90;1.80;;;;;;;23.44;45.08;97113.97;5084968;28;20219;-23
2023/06/20 14:09:47;;;;;;;1.97;1.87;;;;;;;23.43;44.96;97113.09;5067668;28;20219;-23
2023/06/20 14:12:14;;;;;;;2.40;2.20;;;;;;;23.43;44.82;97110.53;5064276;28;20207;-23
2023/06/20 14:14:40;;;;;;;2.10;2.00;;;;;;;23.42;44.93;97109.66;5074727;28;20204;-22
2023/06/20 14:17:07;;;;;;;2.33;2.07;;;;;;;23.34;44.97;97090.75;5081640;28;20601;-27
2023/06/20 14:19:34;;;;;;;2.47;2.27;;;;;;;23.43;44.89;97107.97;5085778;28;20249;-23
2023/06/20 14:22:01;;;;;;;3.40;2.10;;;;;;;23.45;45.21;97105.44;5079250;28;20206;-23
2023/06/20 14:24:27;;;;;;;1.93;1.83;;;;;;;23.44;45.31;97098.59;5081775;28;20653;-22
2023/06/20 14:26:57;;;;;;;2.33;2.13;;;;;;;23.44;45.31;97106.28;5086573;28;20545;-22
2023/06/20 14:29:24;;;;;;;1.80;1.70;;;;;;;23.42;45.20;97104.53;5091504;28;20215;-31
2023/06/20 14:31:50;;;;;;;3.50;2.00;;;;;;;23.43;45.17;97095.16;5073796;28;20570;-23
2023/06/20 14:34:17;;;;;;;2.00;1.90;;;;;;;23.42;45.18;97090.00;5073390;28;20203;-23
2023/06/20 14:36:44;;;;;;;2.13;1.93;;;;;;;23.41;45.39;97091.69;5085485;28;20670;-29
2023/06/20 14:39:10;;;;;;;2.00;1.90;;;;;;;23.41;45.42;97084.00;5055438;28;20758;-23
2023/06/20 14:41:37;;;;;;;1.80;1.70;;;;;;;23.40;45.47;97084.84;5076044;28;20264;-23
2023/06/20 14:44:03;;;;;;;2.10;2.00;;;;;;;23.39;45.38;97083.97;5078794;28;20192;-23
2023/06/20 14:46:30;;;;;;;1.90;1.80;;;;;;;23.39;45.37;97076.28;5073627;28;20200;-23
2023/06/20 14:48:57;;;;;;;1.83;1.70;;;;;;;23.39;45.50;97083.97;5056421;28;20212;-25
2023/06/20 14:51:23;;;;;;;2.33;1.83;;;;;;;23.38;45.50;97071.13;5081204;28;20250;-23
2023/06/20 14:53:50;;;;;;;1.97;1.87;;;;;;;23.39;45.40;97076.28;5076890;28;20203;-23
2023/06/20 14:56:16;;;;;;;1.70;1.60;;;;;;;23.40;45.39;97074.59;5090317;28;20208;-23
2023/06/20 14:58:43;;;;;;;2.00;1.90;;;;;;;23.42;45.46;97078.03;5089533;28;20192;-23
2023/06/20 15:01:10;;;;;;;2.23;1.80;;;;;;;23.41;45.46;97073.72;5082745;28;20662;-24
2023/06/20 15:03:37;;;;;;;2.13;1.93;;;;;;;23.37;45.56;97069.41;5091006;28;20202;-23
2023/06/20 15:06:03;;;;;;;2.03;1.93;;;;;;;23.41;45.65;97081.44;5084720;28;20192;-34
2023/06/20 15:08:30;;;;;;;1.90;1.80;;;;;;;23.41;45.66;97073.72;5045828;28;20227;-24
2023/06/20 15:10:57;;;;;;;1.97;1.87;;;;;;;23.39;45.75;97076.28;5087256;28;20220;-23
2023/06/20 15:13:26;;;;;;;2.00;1.80;;;;;;;23.39;45.71;97066.00;5087119;28;20195;-26
2023/06/20 15:15:52;;;;;;;1.70;1.60;;;;;;;23.39;45.70;97068.59;5084135;28;20221;-23
2023/06/20 15:18:19;;;;;;;2.30;2.10;;;;;;;23.38;45.74;97068.56;5083983;28;20192;-23
2023/06/20 15:20:46;;;;;;;2.00;1.90;;;;;;;23.38;45.72;97066.00;5062349;28;20259;-23
2023/06/20 15:23:12;;;;;;;1.90;1.80;;;;;;;23.38;45.76;97073.69;5069951;28;20618;-26
2023/06/20 15:25:39;;;;;;;1.90;1.80;;;;;;;23.38;45.73;97065.16;5074640;28;20670;-22
2023/06/20 15:28:05;;;;;;;1.80;1.70;;;;;;;23.38;45.81;97057.47;5084483;28;20219;-23
2023/06/20 15:30:32;;;;;;;1.80;1.70;;;;;;;23.39;45.86;97062.59;5072046;28;20232;-25
2023/06/20 15:33:03;;;;;;;1.83;1.73;;;;;;;23.39;45.99;97066.00;5078872;28;20223;-22
2023/06/20 15:35:30;;;;;;;1.77;1.67;;;;;;;23.39;45.97;97053.19;5075963;28;20200;-23
2023/06/20 15:37:59;;;;;;;1.90;1.80;;;;;;;23.39;45.98;97045.50;5078408;28;20193;-26
2023/06/20 15:40:26;;;;;;;2.77;1.80;;;;;;;23.39;46.05;97042.09;5072349;28;20224;-23
2023/06/20 15:42:53;;;;;;;1.63;1.53;;;;;;;23.38;46.06;97041.22;5089746;28;20261;-23